Time;durP1;ratioP1;P1;durP2;ratioP2;P2;SDS_P1;SDS_P2;PMS_P1;PMS_P2;Temp;Humidity;BMP_temperature;BMP_pressure;BME280_temperature;BME280_humidity;BME280_pressure;Samples;Min_cycle;Max_cycle;Signal;HPM_P1;HPM_P2
2023/12/12 00:00:29;;;;;;;;;;;18.70;59.00;;;;;;7394704;19;3328;-62
2023/12/12 00:03:01;;;;;;;;;;;18.70;59.10;;;;;;7395108;19;3237;-62
2023/12/12 00:05:26;;;;;;;;;;;18.70;59.10;;;;;;7396145;19;3133;-61
2023/12/12 00:07:52;;;;;;;;;;;18.70;59.00;;;;;;7397767;19;3166;-61
2023/12/12 00:10:17;;;;;;;;;;;18.60;59.00;;;;;;7392527;19;3739;-61
2023/12/12 00:12:43;;;;;;;;;;;18.60;59.00;;;;;;7402764;19;2689;-61
2023/12/12 00:15:09;;;;;;;;;;;18.60;59.00;;;;;;7398618;19;3040;-61
2023/12/12 00:17:34;;;;;;;;;;;18.50;58.90;;;;;;7396498;19;3663;-61
2023/12/12 00:20:00;;;;;;;;;;;18.50;59.10;;;;;;7387634;19;3695;-61
2023/12/12 00:22:25;;;;;;;;;;;18.50;59.10;;;;;;7390765;19;2953;-61
2023/12/12 00:24:51;;;;;;;;;;;18.50;58.90;;;;;;7390520;19;3295;-61
2023/12/12 00:27:16;;;;;;;;;;;18.50;58.90;;;;;;7395420;19;3125;-61
2023/12/12 00:29:42;;;;;;;;;;;18.40;58.70;;;;;;7400556;19;2808;-61
2023/12/12 00:32:07;;;;;;;;;;;18.40;58.70;;;;;;7399834;19;832;-62
2023/12/12 00:34:36;;;;;;;;;;;18.40;58.80;;;;;;7397211;19;2732;-61
2023/12/12 00:37:02;;;;;;;;;;;18.40;58.80;;;;;;7394476;19;3657;-61
2023/12/12 00:39:27;;;;;;;;;;;18.40;59.50;;;;;;7394794;19;3249;-61
2023/12/12 00:41:53;;;;;;;;;;;18.40;58.90;;;;;;7394097;19;3671;-61
2023/12/12 00:44:18;;;;;;;;;;;18.30;58.90;;;;;;7396414;19;3140;-61
2023/12/12 00:46:43;;;;;;;;;;;18.30;58.90;;;;;;7395993;19;3291;-61
2023/12/12 00:49:09;;;;;;;;;;;18.30;58.80;;;;;;7395195;19;2986;-62
2023/12/12 00:51:34;;;;;;;;;;;18.30;59.10;;;;;;7390348;19;2965;-61
2023/12/12 00:54:00;;;;;;;;;;;18.20;58.90;;;;;;7393072;19;2978;-61
2023/12/12 00:56:25;;;;;;;;;;;18.30;59.10;;;;;;7393117;19;3061;-61
2023/12/12 00:58:51;;;;;;;;;;;18.20;58.90;;;;;;7395048;19;3971;-61
2023/12/12 01:01:16;;;;;;;;;;;18.30;59.00;;;;;;7393694;19;4142;-60
2023/12/12 01:03:41;;;;;;;;;;;18.20;58.80;;;;;;7394720;19;3128;-61
2023/12/12 01:06:07;;;;;;;;;;;18.20;58.60;;;;;;7393618;19;3301;-61
2023/12/12 01:08:32;;;;;;;;;;;18.20;58.60;;;;;;7393455;19;3222;-62
2023/12/12 01:10:58;;;;;;;;;;;18.20;58.70;;;;;;7390318;19;3264;-61
2023/12/12 01:13:23;;;;;;;;;;;18.20;58.70;;;;;;7393088;19;3518;-61
2023/12/12 01:15:49;;;;;;;;;;;18.10;58.60;;;;;;7397207;19;3150;-60
2023/12/12 01:18:14;;;;;;;;;;;18.10;58.70;;;;;;7397767;19;2740;-61
2023/12/12 01:20:40;;;;;;;;;;;18.10;58.70;;;;;;7395313;19;3327;-61
2023/12/12 01:23:05;;;;;;;;;;;18.10;58.80;;;;;;7392220;19;3218;-62
2023/12/12 01:25:31;;;;;;;;;;;18.10;58.60;;;;;;7393500;19;3240;-61
2023/12/12 01:27:56;;;;;;;;;;;18.10;58.80;;;;;;7394081;19;3774;-61
2023/12/12 01:30:22;;;;;;;;;;;18.10;58.80;;;;;;7391599;19;3213;-62
2023/12/12 01:32:47;;;;;;;;;;;18.10;58.60;;;;;;7392693;19;3367;-61
2023/12/12 01:35:13;;;;;;;;;;;18.00;58.70;;;;;;7393215;19;3675;-61
2023/12/12 01:37:38;;;;;;;;;;;18.00;58.70;;;;;;7393551;19;3702;-61
2023/12/12 01:40:04;;;;;;;;;;;18.00;58.60;;;;;;7393057;19;3745;-61
2023/12/12 01:42:30;;;;;;;;;;;18.00;58.70;;;;;;7393195;19;3712;-60
2023/12/12 01:44:55;;;;;;;;;;;18.00;58.70;;;;;;7394281;19;3152;-61
2023/12/12 01:47:21;;;;;;;;;;;18.00;58.70;;;;;;7391966;19;3077;-61
2023/12/12 01:49:46;;;;;;;;;;;18.00;58.70;;;;;;7391680;19;3472;-61
2023/12/12 01:52:13;;;;;;;;;;;18.00;58.70;;;;;;7391348;19;2967;-61
2023/12/12 01:54:39;;;;;;;;;;;18.00;58.60;;;;;;7392290;19;2954;-61
2023/12/12 01:57:04;;;;;;;;;;;18.00;58.70;;;;;;7393876;19;3006;-62
2023/12/12 01:59:30;;;;;;;;;;;17.90;58.70;;;;;;7390432;19;3233;-61
2023/12/12 02:01:55;;;;;;;;;;;18.00;58.80;;;;;;7392099;19;3772;-61
2023/12/12 02:04:21;;;;;;;;;;;17.90;58.60;;;;;;7392096;19;2936;-61
2023/12/12 02:06:46;;;;;;;;;;;17.90;58.60;;;;;;7389077;19;2918;-62
2023/12/12 02:09:12;;;;;;;;;;;17.90;58.70;;;;;;7391976;19;3993;-61
2023/12/12 02:11:37;;;;;;;;;;;17.90;58.50;;;;;;7392153;19;2990;-61
2023/12/12 02:14:02;;;;;;;;;;;17.90;58.50;;;;;;7389958;19;3611;-61
2023/12/12 02:16:28;;;;;;;;;;;17.90;58.40;;;;;;7392657;19;3023;-61
2023/12/12 02:18:53;;;;;;;;;;;18.00;58.70;;;;;;7390849;19;2844;-61
2023/12/12 02:21:19;;;;;;;;;;;18.30;58.20;;;;;;7391082;19;3245;-61
2023/12/12 02:23:47;;;;;;;;;;;18.60;57.70;;;;;;7392175;19;3144;-61
2023/12/12 02:26:12;;;;;;;;;;;19.00;56.90;;;;;;7391992;19;3192;-60
2023/12/12 02:28:38;;;;;;;;;;;19.50;55.90;;;;;;7392370;19;3256;-60
2023/12/12 02:31:03;;;;;;;;;;;20.00;55.00;;;;;;7390618;19;3241;-61
2023/12/12 02:33:29;;;;;;;;;;;20.40;53.80;;;;;;7393002;19;3800;-61
2023/12/12 02:35:54;;;;;;;;;;;20.90;52.70;;;;;;7391465;19;2833;-61
2023/12/12 02:38:20;;;;;;;;;;;21.40;51.80;;;;;;7390338;19;3805;-61
2023/12/12 02:40:45;;;;;;;;;;;21.70;51.00;;;;;;7388510;19;3065;-61
2023/12/12 02:43:10;;;;;;;;;;;22.00;50.30;;;;;;7391239;19;3638;-61
2023/12/12 02:45:36;;;;;;;;;;;22.20;50.00;;;;;;7380044;19;3436;-61
2023/12/12 02:48:01;;;;;;;;;;;22.30;49.70;;;;;;7388923;19;3167;-61
2023/12/12 02:50:27;;;;;;;;;;;22.40;49.50;;;;;;7386820;19;3701;-61
2023/12/12 02:52:52;;;;;;;;;;;22.40;49.50;;;;;;7389044;19;3163;-61
2023/12/12 02:55:17;;;;;;;;;;;22.30;49.50;;;;;;7387068;19;2873;-61
2023/12/12 02:57:43;;;;;;;;;;;22.20;49.60;;;;;;7389119;19;3777;-61
2023/12/12 03:00:09;;;;;;;;;;;22.00;50.00;;;;;;7388528;19;2970;-61
2023/12/12 03:02:35;;;;;;;;;;;21.70;50.40;;;;;;7389937;19;3056;-62
2023/12/12 03:05:00;;;;;;;;;;;21.60;50.90;;;;;;7391674;19;3117;-61
2023/12/12 03:07:25;;;;;;;;;;;21.40;51.30;;;;;;7389509;19;2860;-61
2023/12/12 03:09:52;;;;;;;;;;;21.20;51.60;;;;;;7388629;19;4521;-60
2023/12/12 03:12:17;;;;;;;;;;;21.00;51.90;;;;;;7391027;19;3645;-61
2023/12/12 03:14:43;;;;;;;;;;;20.90;52.30;;;;;;7388728;19;2984;-61
2023/12/12 03:17:08;;;;;;;;;;;20.70;52.60;;;;;;7388233;19;3650;-61
2023/12/12 03:19:34;;;;;;;;;;;20.60;53.00;;;;;;7389868;19;3109;-61
2023/12/12 03:21:59;;;;;;;;;;;20.50;53.30;;;;;;7390806;19;3143;-61
2023/12/12 03:24:24;;;;;;;;;;;20.30;53.50;;;;;;7388153;19;3739;-61
2023/12/12 03:26:50;;;;;;;;;;;20.30;53.70;;;;;;7387517;19;3146;-61
2023/12/12 03:29:15;;;;;;;;;;;20.10;53.80;;;;;;7388624;19;2924;-61
2023/12/12 03:31:41;;;;;;;;;;;20.10;54.10;;;;;;7389641;19;4055;-61
2023/12/12 03:34:07;;;;;;;;;;;20.00;54.30;;;;;;7390081;19;3730;-61
2023/12/12 03:36:33;;;;;;;;;;;19.90;54.30;;;;;;7387591;19;3692;-61
2023/12/12 03:38:59;;;;;;;;;;;19.90;54.50;;;;;;7389045;19;3865;-61
2023/12/12 03:41:25;;;;;;;;;;;20.00;54.40;;;;;;7388956;19;3451;-61
2023/12/12 03:43:50;;;;;;;;;;;20.20;54.00;;;;;;7388182;19;3783;-61
2023/12/12 03:46:16;;;;;;;;;;;20.40;53.60;;;;;;7393650;19;2819;-61
2023/12/12 03:48:41;;;;;;;;;;;20.70;53.00;;;;;;7391380;19;1436;-61
2023/12/12 03:51:10;;;;;;;;;;;20.90;52.50;;;;;;7385785;19;3016;-61
2023/12/12 03:53:35;;;;;;;;;;;21.10;52.20;;;;;;7389692;19;3081;-61
2023/12/12 03:56:01;;;;;;;;;;;21.10;51.90;;;;;;7389082;19;3337;-61
2023/12/12 03:58:26;;;;;;;;;;;21.20;51.80;;;;;;7389892;19;3027;-61
2023/12/12 04:00:52;;;;;;;;;;;21.10;51.70;;;;;;7385904;19;2971;-61
2023/12/12 04:03:17;;;;;;;;;;;21.00;52.00;;;;;;7389330;19;3711;-61
2023/12/12 04:05:43;;;;;;;;;;;20.90;52.20;;;;;;7387456;19;3347;-61
2023/12/12 04:08:08;;;;;;;;;;;20.80;52.30;;;;;;7389424;19;3713;-61
2023/12/12 04:10:34;;;;;;;;;;;20.70;52.60;;;;;;7386792;19;3219;-61
2023/12/12 04:12:59;;;;;;;;;;;20.60;52.90;;;;;;7388167;19;3675;-61
2023/12/12 04:15:24;;;;;;;;;;;20.50;53.20;;;;;;7386455;19;3773;-62
2023/12/12 04:17:50;;;;;;;;;;;20.30;53.30;;;;;;7387318;19;2977;-61
2023/12/12 04:20:16;;;;;;;;;;;20.30;54.30;;;;;;7386201;19;4210;-60
2023/12/12 04:22:41;;;;;;;;;;;20.20;53.70;;;;;;7386298;19;3008;-61
2023/12/12 04:25:07;;;;;;;;;;;20.10;53.90;;;;;;7387316;19;3351;-61
2023/12/12 04:27:32;;;;;;;;;;;20.10;53.90;;;;;;7387063;19;3627;-61
2023/12/12 04:29:58;;;;;;;;;;;20.10;54.10;;;;;;7390939;19;3761;-61
2023/12/12 04:32:23;;;;;;;;;;;20.10;54.10;;;;;;7393703;19;3181;-61
2023/12/12 04:34:48;;;;;;;;;;;20.10;54.00;;;;;;7395645;19;3546;-61
2023/12/12 04:37:14;;;;;;;;;;;20.30;53.80;;;;;;7395001;19;3191;-61
2023/12/12 04:39:40;;;;;;;;;;;20.40;53.40;;;;;;7393337;19;3781;-61
2023/12/12 04:42:05;;;;;;;;;;;20.60;53.10;;;;;;7393124;19;3754;-61
2023/12/12 04:44:30;;;;;;;;;;;20.70;52.90;;;;;;7392571;19;3857;-61
2023/12/12 04:46:56;;;;;;;;;;;20.80;52.60;;;;;;7392871;19;3632;-61
2023/12/12 04:49:21;;;;;;;;;;;20.90;52.30;;;;;;7392463;19;3081;-60
2023/12/12 04:51:47;;;;;;;;;;;20.90;52.20;;;;;;7393136;19;3086;-61
2023/12/12 04:54:12;;;;;;;;;;;20.90;52.30;;;;;;7389397;19;2886;-61
2023/12/12 04:56:37;;;;;;;;;;;20.80;52.30;;;;;;7394116;19;3195;-61
2023/12/12 04:59:03;;;;;;;;;;;20.60;52.60;;;;;;7398534;19;2702;-61
2023/12/12 05:01:28;;;;;;;;;;;20.60;53.00;;;;;;7393157;19;2697;-61
2023/12/12 05:03:54;;;;;;;;;;;20.50;53.00;;;;;;7387125;19;2795;-61
2023/12/12 05:06:19;;;;;;;;;;;20.40;53.30;;;;;;7387892;19;2888;-61
2023/12/12 05:08:45;;;;;;;;;;;20.30;53.50;;;;;;7393453;19;2864;-60
2023/12/12 05:11:13;;;;;;;;;;;20.20;53.70;;;;;;7394496;19;2806;-61
2023/12/12 05:13:39;;;;;;;;;;;20.20;53.80;;;;;;7396055;19;1554;-60
2023/12/12 05:16:07;;;;;;;;;;;20.10;53.90;;;;;;7398162;19;2680;-61
2023/12/12 05:18:32;;;;;;;;;;;20.10;53.90;;;;;;7393192;19;3970;-61
2023/12/12 05:20:58;;;;;;;;;;;20.10;53.90;;;;;;7393215;19;3355;-60
2023/12/12 05:23:23;;;;;;;;;;;20.20;53.80;;;;;;7394280;19;3028;-61
2023/12/12 05:25:49;;;;;;;;;;;20.30;53.70;;;;;;7393948;19;3693;-60
2023/12/12 05:28:16;;;;;;;;;;;20.40;53.30;;;;;;7394167;19;3850;-60
2023/12/12 05:30:42;;;;;;;;;;;20.50;53.00;;;;;;7392043;19;3305;-60
2023/12/12 05:33:07;;;;;;;;;;;20.70;52.90;;;;;;7395025;19;3594;-60
2023/12/12 05:35:33;;;;;;;;;;;20.80;52.60;;;;;;7393082;19;4132;-62
2023/12/12 05:37:58;;;;;;;;;;;20.80;52.40;;;;;;7392398;19;3372;-61
2023/12/12 05:40:24;;;;;;;;;;;20.90;52.40;;;;;;7389017;19;2939;-61
2023/12/12 05:42:49;;;;;;;;;;;20.90;52.40;;;;;;7391602;19;2963;-61
2023/12/12 05:45:14;;;;;;;;;;;20.80;52.40;;;;;;7392899;19;2899;-61
2023/12/12 05:47:40;;;;;;;;;;;20.70;52.60;;;;;;7392733;19;3228;-61
2023/12/12 05:50:06;;;;;;;;;;;20.60;52.70;;;;;;7390681;19;3806;-61
2023/12/12 05:52:31;;;;;;;;;;;20.50;53.00;;;;;;7390166;19;3685;-61
2023/12/12 05:54:57;;;;;;;;;;;20.30;53.20;;;;;;7389556;19;2906;-61
2023/12/12 05:57:22;;;;;;;;;;;20.30;53.50;;;;;;7392132;19;3915;-61
2023/12/12 05:59:48;;;;;;;;;;;20.20;53.60;;;;;;7390501;19;3475;-61
2023/12/12 06:02:13;;;;;;;;;;;20.20;53.80;;;;;;7392296;19;3688;-62
2023/12/12 06:04:39;;;;;;;;;;;20.10;53.80;;;;;;7393530;19;2876;-61
2023/12/12 06:07:05;;;;;;;;;;;20.10;53.90;;;;;;7391190;19;3195;-61
2023/12/12 06:09:31;;;;;;;;;;;20.10;53.90;;;;;;7390014;19;3701;-62
2023/12/12 06:11:57;;;;;;;;;;;20.10;53.90;;;;;;7391480;19;3630;-61
2023/12/12 06:14:22;;;;;;;;;;;20.20;53.80;;;;;;7390533;19;3052;-61
2023/12/12 06:16:48;;;;;;;;;;;20.20;53.50;;;;;;7392343;19;2905;-61
2023/12/12 06:19:13;;;;;;;;;;;20.40;53.40;;;;;;7389213;19;2968;-61
2023/12/12 06:21:38;;;;;;;;;;;20.50;53.30;;;;;;7391224;19;2833;-61
2023/12/12 06:24:04;;;;;;;;;;;20.60;52.80;;;;;;7390305;19;3114;-61
2023/12/12 06:26:30;;;;;;;;;;;20.70;52.50;;;;;;7391160;19;3143;-62
2023/12/12 06:28:55;;;;;;;;;;;20.90;52.40;;;;;;7390025;19;2973;-61
2023/12/12 06:31:21;;;;;;;;;;;20.90;52.20;;;;;;7387365;19;3766;-61
2023/12/12 06:33:47;;;;;;;;;;;21.00;52.00;;;;;;7389978;19;3055;-61
2023/12/12 06:36:12;;;;;;;;;;;21.00;51.80;;;;;;7387977;19;3337;-62
2023/12/12 06:38:37;;;;;;;;;;;21.00;52.00;;;;;;7397960;19;2975;-62
2023/12/12 06:41:03;;;;;;;;;;;20.90;52.00;;;;;;7395887;19;1419;-60
2023/12/12 06:43:29;;;;;;;;;;;20.80;52.00;;;;;;7395288;19;2741;-61
2023/12/12 06:45:54;;;;;;;;;;;20.80;52.30;;;;;;7390367;19;3149;-61
2023/12/12 06:48:20;;;;;;;;;;;20.70;52.50;;;;;;7389751;19;3668;-61
2023/12/12 06:50:46;;;;;;;;;;;20.60;52.60;;;;;;7386684;19;2806;-61
2023/12/12 06:53:11;;;;;;;;;;;20.50;52.80;;;;;;7388093;19;3067;-61
2023/12/12 06:55:37;;;;;;;;;;;20.50;52.90;;;;;;7384383;19;2916;-61
2023/12/12 06:58:03;;;;;;;;;;;20.40;52.90;;;;;;7389398;19;2949;-62
2023/12/12 07:00:29;;;;;;;;;;;20.40;52.90;;;;;;7385623;19;4191;-62
2023/12/12 07:02:55;;;;;;;;;;;20.40;52.80;;;;;;7378934;19;3580;-61
2023/12/12 07:05:21;;;;;;;;;;;20.40;52.60;;;;;;7384717;19;3212;-61
2023/12/12 07:07:47;;;;;;;;;;;20.40;52.70;;;;;;7384944;19;3219;-62
2023/12/12 07:10:13;;;;;;;;;;;20.40;52.80;;;;;;7389730;19;3965;-61
2023/12/12 07:12:38;;;;;;;;;;;20.40;52.90;;;;;;7387765;19;2825;-62
2023/12/12 07:15:04;;;;;;;;;;;20.50;53.00;;;;;;7384876;19;2997;-61
2023/12/12 07:17:29;;;;;;;;;;;20.50;52.90;;;;;;7389912;19;3144;-61
2023/12/12 07:19:55;;;;;;;;;;;20.70;52.80;;;;;;7389823;19;3255;-61
2023/12/12 07:22:21;;;;;;;;;;;20.70;52.50;;;;;;7390049;19;2927;-61
2023/12/12 07:24:46;;;;;;;;;;;20.80;52.40;;;;;;7390269;19;3005;-61
2023/12/12 07:27:12;;;;;;;;;;;20.80;52.20;;;;;;7387294;19;4281;-61
2023/12/12 07:29:38;;;;;;;;;;;20.90;52.20;;;;;;7388940;19;3009;-61
2023/12/12 07:32:03;;;;;;;;;;;20.90;52.10;;;;;;7388854;19;3760;-61
2023/12/12 07:34:29;;;;;;;;;;;20.90;52.20;;;;;;7387158;19;3904;-61
2023/12/12 07:36:54;;;;;;;;;;;20.90;52.20;;;;;;7389609;19;3219;-61
2023/12/12 07:39:20;;;;;;;;;;;20.90;52.10;;;;;;7390576;19;3314;-61
2023/12/12 07:41:45;;;;;;;;;;;20.90;52.20;;;;;;7388056;19;3762;-61
2023/12/12 07:44:11;;;;;;;;;;;20.90;52.10;;;;;;7387149;19;3207;-62
2023/12/12 07:46:38;;;;;;;;;;;20.90;52.00;;;;;;7388680;19;3986;-61
2023/12/12 07:49:03;;;;;;;;;;;20.80;52.00;;;;;;7387472;19;2920;-61
2023/12/12 07:51:29;;;;;;;;;;;20.80;52.00;;;;;;7384785;19;3783;-61
2023/12/12 07:53:55;;;;;;;;;;;20.80;51.80;;;;;;7386764;19;2828;-61
2023/12/12 07:56:20;;;;;;;;;;;20.80;52.00;;;;;;7386619;19;3557;-61
2023/12/12 07:58:46;;;;;;;;;;;20.70;52.00;;;;;;7386385;19;3359;-61
2023/12/12 08:01:11;;;;;;;;;;;20.80;52.00;;;;;;7378883;19;5338;-61
2023/12/12 08:03:36;;;;;;;;;;;20.80;52.00;;;;;;7381829;19;3641;-61
2023/12/12 08:06:03;;;;;;;;;;;20.90;52.00;;;;;;7390515;19;3037;-61
2023/12/12 08:08:31;;;;;;;;;;;20.80;52.00;;;;;;7400473;19;1533;-61
2023/12/12 08:10:56;;;;;;;;;;;20.70;52.20;;;;;;7389299;19;4085;-61
2023/12/12 08:13:22;;;;;;;;;;;20.80;52.40;;;;;;7392278;19;4351;-61
2023/12/12 08:15:47;;;;;;;;;;;20.80;52.30;;;;;;7393851;19;3729;-61
2023/12/12 08:18:13;;;;;;;;;;;20.80;52.20;;;;;;7397297;19;3686;-61
2023/12/12 08:20:39;;;;;;;;;;;20.90;52.20;;;;;;7396600;19;2879;-60
2023/12/12 08:23:05;;;;;;;;;;;21.00;52.10;;;;;;7392988;19;4041;-61
2023/12/12 08:25:30;;;;;;;;;;;21.00;51.90;;;;;;7396497;19;3139;-61
2023/12/12 08:27:57;;;;;;;;;;;21.00;51.80;;;;;;7395217;19;3046;-61
2023/12/12 08:30:23;;;;;;;;;;;21.10;51.80;;;;;;7393485;19;3920;-61
2023/12/12 08:32:48;;;;;;;;;;;21.10;51.90;;;;;;7391971;19;3202;-62
2023/12/12 08:35:13;;;;;;;;;;;21.00;51.80;;;;;;7387355;19;3472;-61
2023/12/12 08:37:39;;;;;;;;;;;20.90;51.90;;;;;;7392830;19;3772;-61
2023/12/12 08:40:05;;;;;;;;;;;20.90;52.10;;;;;;7392056;19;3135;-61
2023/12/12 08:42:31;;;;;;;;;;;20.80;52.00;;;;;;7394411;19;3138;-61
2023/12/12 08:44:56;;;;;;;;;;;20.90;51.90;;;;;;7392420;19;2767;-61
2023/12/12 08:47:21;;;;;;;;;;;20.90;51.80;;;;;;7393825;19;3025;-61
2023/12/12 08:49:47;;;;;;;;;;;20.80;51.80;;;;;;7393444;19;3328;-61
2023/12/12 08:52:14;;;;;;;;;;;20.80;52.10;;;;;;7389956;19;4509;-61
2023/12/12 08:54:42;;;;;;;;;;;20.80;52.20;;;;;;7396247;19;4577;-61
2023/12/12 08:57:09;;;;;;;;;;;20.80;52.20;;;;;;7397532;19;2174;-60
2023/12/12 08:59:38;;;;;;;;;;;20.80;52.20;;;;;;7396451;19;3570;-61
2023/12/12 09:02:03;;;;;;;;;;;20.80;52.50;;;;;;7399078;19;1587;-59
2023/12/12 09:04:29;;;;;;;;;;;20.80;52.80;;;;;;7391484;19;2649;-58
2023/12/12 09:06:54;;;;;;;;;;;20.90;52.80;;;;;;7394034;19;2659;-59
2023/12/12 09:09:21;;;;;;;;;;;21.00;52.70;;;;;;7395434;19;1857;-59
2023/12/12 09:11:47;;;;;;;;;;;21.00;52.80;;;;;;7397385;19;1672;-59
2023/12/12 09:14:12;;;;;;;;;;;21.10;52.80;;;;;;7400195;19;1527;-59
2023/12/12 09:16:38;;;;;;;;;;;21.10;52.50;;;;;;7395567;19;1886;-59
2023/12/12 09:19:03;;;;;;;;;;;21.20;52.70;;;;;;7397976;19;1557;-60
2023/12/12 09:21:28;;;;;;;;;;;21.20;52.70;;;;;;7398777;19;2003;-59
2023/12/12 09:23:54;;;;;;;;;;;21.20;52.50;;;;;;7397149;19;1620;-63
2023/12/12 09:26:20;;;;;;;;;;;21.30;52.80;;;;;;7398402;19;1718;-61
2023/12/12 09:28:45;;;;;;;;;;;21.20;52.60;;;;;;7398388;19;1668;-60
2023/12/12 09:31:11;;;;;;;;;;;21.20;52.10;;;;;;7397996;19;2090;-61
2023/12/12 09:33:37;;;;;;;;;;;21.20;52.10;;;;;;7396308;19;1864;-62
2023/12/12 09:36:02;;;;;;;;;;;21.20;52.30;;;;;;7397131;19;1664;-63
2023/12/12 09:38:28;;;;;;;;;;;21.20;52.30;;;;;;7396810;19;1746;-63
2023/12/12 09:40:53;;;;;;;;;;;21.10;52.10;;;;;;7394233;19;4394;-62
2023/12/12 09:43:21;;;;;;;;;;;21.10;52.50;;;;;;7395720;19;2640;-61
2023/12/12 09:45:47;;;;;;;;;;;21.10;52.50;;;;;;7397001;19;1701;-62
2023/12/12 09:48:15;;;;;;;;;;;21.00;52.60;;;;;;7398086;19;1640;-61
2023/12/12 09:50:41;;;;;;;;;;;21.00;52.70;;;;;;7394739;19;1850;-62
2023/12/12 09:53:06;;;;;;;;;;;21.00;52.80;;;;;;7397707;19;1626;-61
2023/12/12 09:55:32;;;;;;;;;;;21.00;52.90;;;;;;7394597;19;1609;-62
2023/12/12 09:57:57;;;;;;;;;;;21.00;52.90;;;;;;7398457;19;2688;-61
2023/12/12 10:00:23;;;;;;;;;;;21.10;53.00;;;;;;7395841;19;2016;-63
2023/12/12 10:02:50;;;;;;;;;;;21.10;52.90;;;;;;7397457;19;1701;-63
2023/12/12 10:05:16;;;;;;;;;;;21.20;52.60;;;;;;7391534;19;3129;-62
2023/12/12 10:07:41;;;;;;;;;;;21.10;52.40;;;;;;7394625;19;3043;-62
2023/12/12 10:10:10;;;;;;;;;;;21.20;52.50;;;;;;7395438;19;1850;-62
2023/12/12 10:12:35;;;;;;;;;;;21.30;52.30;;;;;;7395515;19;2213;-62
2023/12/12 10:15:00;;;;;;;;;;;21.30;52.30;;;;;;7393888;19;1756;-61
2023/12/12 10:17:26;;;;;;;;;;;21.40;52.20;;;;;;7398428;19;1677;-61
2023/12/12 10:20:05;;;;;;;;;;;21.40;52.00;;;;;;7396039;19;1676;-62
2023/12/12 10:22:33;;;;;;;;;;;21.50;52.10;;;;;;7393500;19;1969;-61
2023/12/12 10:25:11;;;;;;;;;;;21.40;52.00;;;;;;7394035;19;2155;-61
2023/12/12 10:27:43;;;;;;;;;;;21.40;52.20;;;;;;7393480;19;1750;-61
2023/12/12 10:30:09;;;;;;;;;;;21.30;52.40;;;;;;7393037;19;1854;-62
2023/12/12 10:32:38;;;;;;;;;;;21.20;52.60;;;;;;7397112;19;1725;-62
2023/12/12 10:35:03;;;;;;;;;;;21.20;52.80;;;;;;7396637;19;1686;-60
2023/12/12 10:37:29;;;;;;;;;;;21.20;52.90;;;;;;7396857;19;1644;-61
2023/12/12 10:39:54;;;;;;;;;;;21.20;52.90;;;;;;7394307;19;1707;-60
2023/12/12 10:42:19;;;;;;;;;;;21.20;52.90;;;;;;7394569;19;1707;-62
2023/12/12 10:44:48;;;;;;;;;;;21.20;52.60;;;;;;7395003;19;1710;-61
2023/12/12 10:47:14;;;;;;;;;;;21.20;52.80;;;;;;7393071;19;2442;-61
2023/12/12 10:49:41;;;;;;;;;;;21.10;52.90;;;;;;7393709;19;2057;-61
2023/12/12 10:52:08;;;;;;;;;;;21.10;52.70;;;;;;7395005;19;1847;-62
2023/12/12 10:54:33;;;;;;;;;;;21.10;52.90;;;;;;7393757;19;2110;-60
2023/12/12 10:57:00;;;;;;;;;;;21.20;53.00;;;;;;7392786;19;1948;-62
2023/12/12 10:59:26;;;;;;;;;;;21.20;53.00;;;;;;7386933;19;3605;-61
2023/12/12 11:01:51;;;;;;;;;;;21.30;52.50;;;;;;7389218;19;1641;-61
2023/12/12 11:04:17;;;;;;;;;;;21.30;52.90;;;;;;7391620;19;1999;-62
2023/12/12 11:06:43;;;;;;;;;;;21.30;53.00;;;;;;7387584;19;3192;-63
2023/12/12 11:09:08;;;;;;;;;;;21.30;52.80;;;;;;7387702;19;2685;-62
2023/12/12 11:11:35;;;;;;;;;;;21.30;52.90;;;;;;7387137;19;1869;-62
2023/12/12 11:14:01;;;;;;;;;;;21.40;52.60;;;;;;7391021;19;1805;-62
2023/12/12 11:16:26;;;;;;;;;;;21.40;52.30;;;;;;7394582;19;1723;-62
2023/12/12 11:18:52;;;;;;;;;;;21.40;52.20;;;;;;7389704;19;3489;-61
2023/12/12 11:21:37;;;;;;;;;;;21.40;52.10;;;;;;7391208;19;3172;-61
2023/12/12 11:24:02;;;;;;;;;;;21.40;52.40;;;;;;7392274;19;1589;-62
2023/12/12 11:26:28;;;;;;;;;;;21.40;52.00;;;;;;7393945;19;3500;-61
2023/12/12 11:28:54;;;;;;;;;;;21.40;52.20;;;;;;7396477;19;1458;-61
2023/12/12 11:31:20;;;;;;;;;;;21.40;52.10;;;;;;7395291;19;1846;-61
2023/12/12 11:34:04;;;;;;;;;;;21.30;52.40;;;;;;7394204;19;2860;-61
2023/12/12 11:36:49;;;;;;;;;;;21.30;52.80;;;;;;7391267;19;3691;-61
2023/12/12 11:39:18;;;;;;;;;;;21.20;52.60;;;;;;7400215;19;2763;-61
2023/12/12 11:41:45;;;;;;;;;;;21.20;52.60;;;;;;7401801;19;1646;-61
2023/12/12 11:44:10;;;;;;;;;;;21.20;52.80;;;;;;7399302;19;1738;-62
2023/12/12 11:46:36;;;;;;;;;;;21.10;52.90;;;;;;7397932;19;2747;-62
2023/12/12 11:49:20;;;;;;;;;;;21.20;52.70;;;;;;7401431;19;1408;-61
2023/12/12 11:51:46;;;;;;;;;;;21.20;52.90;;;;;;7396006;19;1838;-61
2023/12/12 11:54:21;;;;;;;;;;;21.20;52.70;;;;;;7396959;19;2848;-61
2023/12/12 11:56:47;;;;;;;;;;;21.30;52.80;;;;;;7400844;19;1702;-63
2023/12/12 11:59:19;;;;;;;;;;;21.30;52.90;;;;;;7399733;19;1587;-62
2023/12/12 12:01:45;;;;;;;;;;;21.30;52.60;;;;;;7400305;19;3748;-62
2023/12/12 12:04:10;;;;;;;;;;;21.40;52.90;;;;;;7400979;19;1534;-62
2023/12/12 12:06:36;;;;;;;;;;;21.50;53.00;;;;;;7400764;19;1638;-62
2023/12/12 12:09:01;;;;;;;;;;;21.50;52.50;;;;;;7385820;19;3781;-61
2023/12/12 12:11:35;;;;;;;;;;;21.40;52.90;;;;;;7392199;19;2908;-61
2023/12/12 12:14:00;;;;;;;;;;;21.40;52.90;;;;;;7396260;19;1414;-61
2023/12/12 12:16:26;;;;;;;;;;;21.40;52.60;;;;;;7398487;19;3232;-61
2023/12/12 12:18:51;;;;;;;;;;;21.40;53.10;;;;;;7398405;19;1681;-61
2023/12/12 12:21:17;;;;;;;;;;;21.30;52.50;;;;;;7398874;19;2822;-61
2023/12/12 12:23:42;;;;;;;;;;;21.30;52.60;;;;;;7396864;19;3826;-61
2023/12/12 12:26:08;;;;;;;;;;;21.30;52.80;;;;;;7399028;19;1666;-60
2023/12/12 12:28:33;;;;;;;;;;;21.20;52.50;;;;;;7400572;19;1471;-61
2023/12/12 12:30:59;;;;;;;;;;;21.20;52.80;;;;;;7395780;19;2836;-60
2023/12/12 12:33:31;;;;;;;;;;;21.20;52.70;;;;;;7400549;19;1585;-61
2023/12/12 12:35:56;;;;;;;;;;;21.20;52.90;;;;;;7401209;19;1627;-61
2023/12/12 12:38:25;;;;;;;;;;;21.20;52.90;;;;;;7398126;19;2898;-61
2023/12/12 12:40:51;;;;;;;;;;;21.20;53.00;;;;;;7398837;19;1735;-60
2023/12/12 12:43:19;;;;;;;;;;;21.20;53.00;;;;;;7402552;19;1641;-61
2023/12/12 12:45:45;;;;;;;;;;;21.20;53.20;;;;;;7397097;19;3477;-61
2023/12/12 12:48:11;;;;;;;;;;;21.30;52.90;;;;;;7398288;19;1404;-61
2023/12/12 12:50:38;;;;;;;;;;;21.30;52.40;;;;;;7398108;19;1846;-60
2023/12/12 12:53:03;;;;;;;;;;;21.40;53.10;;;;;;7398626;19;3690;-60
2023/12/12 12:55:29;;;;;;;;;;;21.40;53.00;;;;;;7401300;19;1686;-60
2023/12/12 12:57:54;;;;;;;;;;;21.50;53.00;;;;;;7395847;19;1929;-60
2023/12/12 13:00:20;;;;;;;;;;;21.50;52.90;;;;;;7390593;19;2978;-61
2023/12/12 13:02:45;;;;;;;;;;;21.60;52.90;;;;;;7399352;19;3449;-60
2023/12/12 13:05:11;;;;;;;;;;;21.60;52.70;;;;;;7398520;19;2834;-61
2023/12/12 13:07:36;;;;;;;;;;;21.50;52.30;;;;;;7399213;19;2967;-60
2023/12/12 13:10:02;;;;;;;;;;;21.50;51.90;;;;;;7388024;19;2746;-61
2023/12/12 13:12:28;;;;;;;;;;;21.50;52.10;;;;;;7396058;19;1738;-61
2023/12/12 13:14:54;;;;;;;;;;;21.40;52.00;;;;;;7396022;19;2857;-61
2023/12/12 13:17:19;;;;;;;;;;;21.40;52.20;;;;;;7397425;19;2511;-61
2023/12/12 13:19:45;;;;;;;;;;;21.30;52.50;;;;;;7389822;19;2660;-60
2023/12/12 13:22:10;;;;;;;;;;;21.30;52.70;;;;;;7398844;19;2783;-60
2023/12/12 13:24:36;;;;;;;;;;;21.20;52.70;;;;;;7396085;19;787;-60
2023/12/12 13:27:02;;;;;;;;;;;21.20;52.90;;;;;;7397256;19;2915;-61
2023/12/12 13:29:27;;;;;;;;;;;21.20;52.90;;;;;;7400021;19;3214;-61
2023/12/12 13:31:53;;;;;;;;;;;21.10;53.20;;;;;;7397191;19;1849;-60
2023/12/12 13:34:18;;;;;;;;;;;21.10;53.10;;;;;;7394558;19;3025;-62
2023/12/12 13:36:44;;;;;;;;;;;21.10;53.00;;;;;;7401562;19;3378;-61
2023/12/12 13:39:12;;;;;;;;;;;21.20;52.80;;;;;;7397579;19;1709;-60
2023/12/12 13:41:40;;;;;;;;;;;21.30;52.80;;;;;;7396327;19;3193;-61
2023/12/12 13:44:06;;;;;;;;;;;21.40;52.80;;;;;;7395538;19;3149;-61
2023/12/12 13:46:31;;;;;;;;;;;21.40;52.60;;;;;;7399416;19;2594;-61
2023/12/12 13:48:57;;;;;;;;;;;21.50;52.90;;;;;;7396490;19;3110;-62
2023/12/12 13:51:22;;;;;;;;;;;21.50;53.10;;;;;;7398702;19;3097;-61
2023/12/12 13:53:50;;;;;;;;;;;21.50;53.00;;;;;;7397586;19;1752;-61
2023/12/12 13:56:16;;;;;;;;;;;21.50;53.00;;;;;;7393169;19;2793;-62
2023/12/12 13:58:41;;;;;;;;;;;21.40;52.80;;;;;;7397839;19;3011;-61
2023/12/12 14:01:06;;;;;;;;;;;21.40;52.60;;;;;;7394816;19;1850;-60
2023/12/12 14:03:32;;;;;;;;;;;21.40;52.30;;;;;;7393617;19;2778;-60
2023/12/12 14:05:57;;;;;;;;;;;21.30;52.50;;;;;;7395601;19;3237;-60
2023/12/12 14:08:23;;;;;;;;;;;21.30;52.60;;;;;;7396570;19;1556;-60
2023/12/12 14:10:49;;;;;;;;;;;21.30;52.60;;;;;;7384461;19;2710;-60
2023/12/12 14:13:14;;;;;;;;;;;21.30;52.50;;;;;;7394541;19;3238;-61
2023/12/12 14:15:39;;;;;;;;;;;21.30;52.60;;;;;;7392663;19;1675;-60
2023/12/12 14:18:05;;;;;;;;;;;21.30;52.70;;;;;;7393723;19;2799;-60
2023/12/12 14:20:30;;;;;;;;;;;21.30;52.70;;;;;;7395068;19;3071;-60
2023/12/12 14:22:56;;;;;;;;;;;21.20;52.70;;;;;;7394215;19;793;-60